sensor_id;sensor_type;location;lat;lon;timestamp;temperature;humidity
39021;DHT22;25188;51.958;5.842;2022-12-13T00:01:12;-2.10;88.90
39021;DHT22;25188;51.958;5.842;2022-12-13T00:03:38;-2.10;89.00
39021;DHT22;25188;51.958;5.842;2022-12-13T00:06:08;-2.20;89.00
39021;DHT22;25188;51.958;5.842;2022-12-13T00:08:34;-2.20;89.10
39021;DHT22;25188;51.958;5.842;2022-12-13T00:11:02;-2.20;89.10
39021;DHT22;25188;51.958;5.842;2022-12-13T00:13:28;-2.20;89.10
39021;DHT22;25188;51.958;5.842;2022-12-13T00:15:56;-2.20;89.20
39021;DHT22;25188;51.958;5.842;2022-12-13T00:18:21;-2.20;89.30
39021;DHT22;25188;51.958;5.842;2022-12-13T00:20:47;-2.20;89.30
39021;DHT22;25188;51.958;5.842;2022-12-13T00:23:13;-2.30;89.90
39021;DHT22;25188;51.958;5.842;2022-12-13T00:25:38;-2.30;89.40
39021;DHT22;25188;51.958;5.842;2022-12-13T00:28:04;-2.20;89.50
39021;DHT22;25188;51.958;5.842;2022-12-13T00:30:29;-2.30;89.50
39021;DHT22;25188;51.958;5.842;2022-12-13T00:32:58;-2.30;90.10
39021;DHT22;25188;51.958;5.842;2022-12-13T00:35:23;-2.30;89.70
39021;DHT22;25188;51.958;5.842;2022-12-13T00:37:49;-2.40;89.70
39021;DHT22;25188;51.958;5.842;2022-12-13T00:40:14;-2.40;89.70
39021;DHT22;25188;51.958;5.842;2022-12-13T00:42:40;-2.40;89.80
39021;DHT22;25188;51.958;5.842;2022-12-13T00:45:06;-2.40;89.90
39021;DHT22;25188;51.958;5.842;2022-12-13T00:47:32;-2.40;90.00
39021;DHT22;25188;51.958;5.842;2022-12-13T00:49:57;-2.40;90.00
39021;DHT22;25188;51.958;5.842;2022-12-13T00:52:23;-2.40;90.10
39021;DHT22;25188;51.958;5.842;2022-12-13T00:54:49;-2.40;90.10
39021;DHT22;25188;51.958;5.842;2022-12-13T00:57:14;-2.40;90.10
39021;DHT22;25188;51.958;5.842;2022-12-13T00:59:40;-2.40;90.10
39021;DHT22;25188;51.958;5.842;2022-12-13T01:02:05;-2.40;90.20
39021;DHT22;25188;51.958;5.842;2022-12-13T01:04:31;-2.40;90.20
39021;DHT22;25188;51.958;5.842;2022-12-13T01:06:57;-2.50;90.20
39021;DHT22;25188;51.958;5.842;2022-12-13T01:09:26;-2.50;90.30
39021;DHT22;25188;51.958;5.842;2022-12-13T01:12:04;-2.50;90.30
39021;DHT22;25188;51.958;5.842;2022-12-13T01:14:33;-2.50;90.30
39021;DHT22;25188;51.958;5.842;2022-12-13T01:16:59;-2.50;90.40
39021;DHT22;25188;51.958;5.842;2022-12-13T01:19:26;-2.50;90.40
39021;DHT22;25188;51.958;5.842;2022-12-13T01:21:57;-2.50;90.40
39021;DHT22;25188;51.958;5.842;2022-12-13T01:24:23;-2.50;90.50
39021;DHT22;25188;51.958;5.842;2022-12-13T01:26:51;-2.50;90.60
39021;DHT22;25188;51.958;5.842;2022-12-13T01:29:18;-2.50;90.60
39021;DHT22;25188;51.958;5.842;2022-12-13T01:31:44;-2.50;90.60
39021;DHT22;25188;51.958;5.842;2022-12-13T01:34:14;-2.60;90.60
39021;DHT22;25188;51.958;5.842;2022-12-13T01:36:42;-2.60;90.70
39021;DHT22;25188;51.958;5.842;2022-12-13T01:39:09;-2.60;90.70
39021;DHT22;25188;51.958;5.842;2022-12-13T01:41:35;-2.60;90.80
39021;DHT22;25188;51.958;5.842;2022-12-13T01:44:04;-2.60;90.80
39021;DHT22;25188;51.958;5.842;2022-12-13T01:46:32;-2.60;90.80
39021;DHT22;25188;51.958;5.842;2022-12-13T01:49:11;-2.60;90.90
39021;DHT22;25188;51.958;5.842;2022-12-13T01:51:38;-2.60;90.90
39021;DHT22;25188;51.958;5.842;2022-12-13T01:54:08;-2.60;90.90
39021;DHT22;25188;51.958;5.842;2022-12-13T01:56:42;-2.60;90.90
39021;DHT22;25188;51.958;5.842;2022-12-13T01:59:10;-2.60;90.90
39021;DHT22;25188;51.958;5.842;2022-12-13T02:01:37;-2.70;90.90
39021;DHT22;25188;51.958;5.842;2022-12-13T02:04:03;-2.60;91.00
39021;DHT22;25188;51.958;5.842;2022-12-13T02:06:40;-2.70;91.00
39021;DHT22;25188;51.958;5.842;2022-12-13T02:09:07;-2.70;91.00
39021;DHT22;25188;51.958;5.842;2022-12-13T02:11:36;-2.70;91.00
39021;DHT22;25188;51.958;5.842;2022-12-13T02:14:02;-2.70;91.00
39021;DHT22;25188;51.958;5.842;2022-12-13T02:16:49;-2.80;91.00
39021;DHT22;25188;51.958;5.842;2022-12-13T02:30:38;-2.80;91.20
39021;DHT22;25188;51.958;5.842;2022-12-13T02:38:28;-2.90;91.20
39021;DHT22;25188;51.958;5.842;2022-12-13T02:40:59;-2.80;91.30
39021;DHT22;25188;51.958;5.842;2022-12-13T02:43:33;-2.80;91.30
39021;DHT22;25188;51.958;5.842;2022-12-13T02:46:02;-2.90;91.30
39021;DHT22;25188;51.958;5.842;2022-12-13T02:48:31;-2.90;91.30
39021;DHT22;25188;51.958;5.842;2022-12-13T02:51:01;-2.90;91.40
39021;DHT22;25188;51.958;5.842;2022-12-13T02:53:28;-2.90;91.40
39021;DHT22;25188;51.958;5.842;2022-12-13T02:55:54;-2.90;91.50
39021;DHT22;25188;51.958;5.842;2022-12-13T02:58:23;-2.90;91.50
39021;DHT22;25188;51.958;5.842;2022-12-13T03:06:37;-3.00;91.60
39021;DHT22;25188;51.958;5.842;2022-12-13T03:17:42;-2.90;91.80
39021;DHT22;25188;51.958;5.842;2022-12-13T03:20:09;-2.90;91.80
39021;DHT22;25188;51.958;5.842;2022-12-13T03:22:34;-3.00;91.80
39021;DHT22;25188;51.958;5.842;2022-12-13T03:25:00;-2.90;91.80
39021;DHT22;25188;51.958;5.842;2022-12-13T03:27:26;-2.90;91.90
39021;DHT22;25188;51.958;5.842;2022-12-13T03:29:51;-3.00;91.90
39021;DHT22;25188;51.958;5.842;2022-12-13T03:32:17;-2.90;92.00
39021;DHT22;25188;51.958;5.842;2022-12-13T03:34:43;-3.00;92.00
39021;DHT22;25188;51.958;5.842;2022-12-13T03:37:08;-3.00;92.00
39021;DHT22;25188;51.958;5.842;2022-12-13T03:39:34;-3.00;92.10
39021;DHT22;25188;51.958;5.842;2022-12-13T03:42:00;-2.90;92.10
39021;DHT22;25188;51.958;5.842;2022-12-13T03:44:26;-3.00;92.10
39021;DHT22;25188;51.958;5.842;2022-12-13T03:46:51;-3.00;92.20
39021;DHT22;25188;51.958;5.842;2022-12-13T03:49:17;-3.00;92.20
39021;DHT22;25188;51.958;5.842;2022-12-13T03:51:43;-3.00;92.30
39021;DHT22;25188;51.958;5.842;2022-12-13T03:54:09;-3.00;92.30
39021;DHT22;25188;51.958;5.842;2022-12-13T03:56:35;-3.00;92.30
39021;DHT22;25188;51.958;5.842;2022-12-13T03:59:01;-3.00;92.40
39021;DHT22;25188;51.958;5.842;2022-12-13T04:01:26;-3.00;92.40
39021;DHT22;25188;51.958;5.842;2022-12-13T04:03:52;-3.00;92.40
39021;DHT22;25188;51.958;5.842;2022-12-13T04:06:18;-3.00;92.50
39021;DHT22;25188;51.958;5.842;2022-12-13T04:08:43;-3.00;92.50
39021;DHT22;25188;51.958;5.842;2022-12-13T04:11:09;-3.00;92.80
39021;DHT22;25188;51.958;5.842;2022-12-13T04:13:54;-3.00;92.60
39021;DHT22;25188;51.958;5.842;2022-12-13T04:16:21;-3.00;92.60
39021;DHT22;25188;51.958;5.842;2022-12-13T04:18:47;-3.00;92.70
39021;DHT22;25188;51.958;5.842;2022-12-13T04:21:12;-3.00;92.70
39021;DHT22;25188;51.958;5.842;2022-12-13T04:23:38;-3.00;92.70
39021;DHT22;25188;51.958;5.842;2022-12-13T04:26:04;-3.00;92.80
39021;DHT22;25188;51.958;5.842;2022-12-13T04:28:29;-3.00;92.80
39021;DHT22;25188;51.958;5.842;2022-12-13T04:30:55;-3.00;93.20
39021;DHT22;25188;51.958;5.842;2022-12-13T04:33:22;-3.00;92.90
39021;DHT22;25188;51.958;5.842;2022-12-13T04:35:48;-3.00;92.90
39021;DHT22;25188;51.958;5.842;2022-12-13T04:38:14;-3.10;93.00
39021;DHT22;25188;51.958;5.842;2022-12-13T04:40:39;-3.00;93.00
39021;DHT22;25188;51.958;5.842;2022-12-13T04:43:05;-3.00;93.10
39021;DHT22;25188;51.958;5.842;2022-12-13T04:45:30;-3.00;93.10
39021;DHT22;25188;51.958;5.842;2022-12-13T04:47:56;-2.90;93.20
39021;DHT22;25188;51.958;5.842;2022-12-13T04:50:22;-3.10;93.10
39021;DHT22;25188;51.958;5.842;2022-12-13T04:52:47;-3.10;93.20
39021;DHT22;25188;51.958;5.842;2022-12-13T04:55:13;-3.10;93.20
39021;DHT22;25188;51.958;5.842;2022-12-13T04:57:39;-3.10;93.30
39021;DHT22;25188;51.958;5.842;2022-12-13T05:00:06;-3.10;93.30
39021;DHT22;25188;51.958;5.842;2022-12-13T05:02:34;-3.10;93.40
39021;DHT22;25188;51.958;5.842;2022-12-13T05:05:00;-3.10;93.40
39021;DHT22;25188;51.958;5.842;2022-12-13T05:07:26;-3.10;93.40
39021;DHT22;25188;51.958;5.842;2022-12-13T05:09:51;-3.10;93.50
39021;DHT22;25188;51.958;5.842;2022-12-13T05:12:17;-3.10;93.50
39021;DHT22;25188;51.958;5.842;2022-12-13T05:14:43;-3.10;93.60
39021;DHT22;25188;51.958;5.842;2022-12-13T05:17:08;-3.10;93.60
39021;DHT22;25188;51.958;5.842;2022-12-13T05:19:34;-3.10;93.60
39021;DHT22;25188;51.958;5.842;2022-12-13T05:22:00;-3.10;93.60
39021;DHT22;25188;51.958;5.842;2022-12-13T05:24:25;-3.10;93.60
39021;DHT22;25188;51.958;5.842;2022-12-13T05:26:51;-3.10;93.60
39021;DHT22;25188;51.958;5.842;2022-12-13T05:29:17;-3.10;93.70
39021;DHT22;25188;51.958;5.842;2022-12-13T05:31:42;-3.10;93.70
39021;DHT22;25188;51.958;5.842;2022-12-13T05:34:09;-3.10;93.70
39021;DHT22;25188;51.958;5.842;2022-12-13T05:36:34;-3.10;93.70
39021;DHT22;25188;51.958;5.842;2022-12-13T05:39:00;-3.10;93.80
39021;DHT22;25188;51.958;5.842;2022-12-13T05:41:28;-3.10;93.80
39021;DHT22;25188;51.958;5.842;2022-12-13T05:43:56;-3.10;93.80
39021;DHT22;25188;51.958;5.842;2022-12-13T05:46:22;-3.10;93.90
39021;DHT22;25188;51.958;5.842;2022-12-13T05:48:48;-3.20;93.90
39021;DHT22;25188;51.958;5.842;2022-12-13T05:51:13;-3.20;93.90
39021;DHT22;25188;51.958;5.842;2022-12-13T05:53:40;-3.20;94.20
39021;DHT22;25188;51.958;5.842;2022-12-13T05:56:07;-3.20;93.90
39021;DHT22;25188;51.958;5.842;2022-12-13T05:58:33;-3.20;94.00
39021;DHT22;25188;51.958;5.842;2022-12-13T06:01:11;-3.20;94.00
39021;DHT22;25188;51.958;5.842;2022-12-13T06:03:37;-3.20;94.10
39021;DHT22;25188;51.958;5.842;2022-12-13T06:06:04;-3.20;94.10
39021;DHT22;25188;51.958;5.842;2022-12-13T06:08:30;-3.20;94.10
39021;DHT22;25188;51.958;5.842;2022-12-13T06:10:58;-3.20;94.20
39021;DHT22;25188;51.958;5.842;2022-12-13T06:13:24;-3.20;94.20
39021;DHT22;25188;51.958;5.842;2022-12-13T06:15:51;-3.30;94.20
39021;DHT22;25188;51.958;5.842;2022-12-13T06:18:16;-3.30;94.20
39021;DHT22;25188;51.958;5.842;2022-12-13T06:20:42;-3.40;94.30
39021;DHT22;25188;51.958;5.842;2022-12-13T06:23:12;-3.30;94.40
39021;DHT22;25188;51.958;5.842;2022-12-13T06:25:37;-3.30;94.40
39021;DHT22;25188;51.958;5.842;2022-12-13T06:28:03;-3.30;94.40
39021;DHT22;25188;51.958;5.842;2022-12-13T06:30:29;-3.30;94.40
39021;DHT22;25188;51.958;5.842;2022-12-13T06:32:55;-3.40;94.40
39021;DHT22;25188;51.958;5.842;2022-12-13T06:35:21;-3.30;94.50
39021;DHT22;25188;51.958;5.842;2022-12-13T06:37:51;-3.30;94.50
39021;DHT22;25188;51.958;5.842;2022-12-13T06:40:16;-3.40;94.50
39021;DHT22;25188;51.958;5.842;2022-12-13T06:42:42;-3.40;94.50
39021;DHT22;25188;51.958;5.842;2022-12-13T06:45:08;-3.40;94.60
39021;DHT22;25188;51.958;5.842;2022-12-13T06:47:34;-3.40;94.70
39021;DHT22;25188;51.958;5.842;2022-12-13T06:49:59;-3.40;94.70
39021;DHT22;25188;51.958;5.842;2022-12-13T06:52:25;-3.40;94.70
39021;DHT22;25188;51.958;5.842;2022-12-13T06:54:51;-3.50;94.70
39021;DHT22;25188;51.958;5.842;2022-12-13T06:57:19;-3.40;94.80
39021;DHT22;25188;51.958;5.842;2022-12-13T06:59:46;-3.50;94.80
39021;DHT22;25188;51.958;5.842;2022-12-13T07:02:14;-3.50;95.10
39021;DHT22;25188;51.958;5.842;2022-12-13T07:04:39;-3.50;94.90
39021;DHT22;25188;51.958;5.842;2022-12-13T07:07:05;-3.50;94.90
39021;DHT22;25188;51.958;5.842;2022-12-13T07:09:34;-3.50;94.90
39021;DHT22;25188;51.958;5.842;2022-12-13T07:14:45;-3.50;95.00
39021;DHT22;25188;51.958;5.842;2022-12-13T07:17:11;-3.20;95.10
39021;DHT22;25188;51.958;5.842;2022-12-13T07:19:36;-3.50;95.30
39021;DHT22;25188;51.958;5.842;2022-12-13T07:22:03;-3.50;95.10
39021;DHT22;25188;51.958;5.842;2022-12-13T07:24:33;-3.60;95.10
39021;DHT22;25188;51.958;5.842;2022-12-13T07:26:59;-3.40;95.10
39021;DHT22;25188;51.958;5.842;2022-12-13T07:29:25;-3.50;95.10
39021;DHT22;25188;51.958;5.842;2022-12-13T07:31:50;-3.40;95.10
39021;DHT22;25188;51.958;5.842;2022-12-13T07:34:16;-3.50;95.10
39021;DHT22;25188;51.958;5.842;2022-12-13T07:36:42;-3.50;95.40
39021;DHT22;25188;51.958;5.842;2022-12-13T07:39:08;-3.50;95.20
39021;DHT22;25188;51.958;5.842;2022-12-13T07:41:33;-3.40;95.30
39021;DHT22;25188;51.958;5.842;2022-12-13T07:43:59;-3.40;95.30
39021;DHT22;25188;51.958;5.842;2022-12-13T07:46:25;-3.50;95.30
39021;DHT22;25188;51.958;5.842;2022-12-13T07:48:50;-3.50;95.60
39021;DHT22;25188;51.958;5.842;2022-12-13T07:51:16;-3.50;95.30
39021;DHT22;25188;51.958;5.842;2022-12-13T07:53:42;-3.40;95.40
39021;DHT22;25188;51.958;5.842;2022-12-13T07:56:09;-3.50;95.40
39021;DHT22;25188;51.958;5.842;2022-12-13T07:58:36;-3.40;95.50
39021;DHT22;25188;51.958;5.842;2022-12-13T08:01:07;-3.60;95.50
39021;DHT22;25188;51.958;5.842;2022-12-13T08:03:34;-3.40;95.70
39021;DHT22;25188;51.958;5.842;2022-12-13T08:06:10;-3.40;95.70
39021;DHT22;25188;51.958;5.842;2022-12-13T08:08:36;-3.40;95.80
39021;DHT22;25188;51.958;5.842;2022-12-13T08:11:05;-3.40;95.90
39021;DHT22;25188;51.958;5.842;2022-12-13T08:13:31;-3.30;96.00
39021;DHT22;25188;51.958;5.842;2022-12-13T08:16:01;-3.30;96.00
39021;DHT22;25188;51.958;5.842;2022-12-13T08:18:28;-3.30;96.10
39021;DHT22;25188;51.958;5.842;2022-12-13T08:20:58;-3.30;96.20
39021;DHT22;25188;51.958;5.842;2022-12-13T08:23:25;-3.20;96.30
39021;DHT22;25188;51.958;5.842;2022-12-13T08:25:52;-3.20;96.30
39021;DHT22;25188;51.958;5.842;2022-12-13T08:28:18;-3.20;96.40
39021;DHT22;25188;51.958;5.842;2022-12-13T08:30:44;-3.10;96.40
39021;DHT22;25188;51.958;5.842;2022-12-13T08:33:10;-3.10;96.50
39021;DHT22;25188;51.958;5.842;2022-12-13T08:35:36;-3.10;96.50
39021;DHT22;25188;51.958;5.842;2022-12-13T08:38:02;-3.00;96.70
39021;DHT22;25188;51.958;5.842;2022-12-13T08:40:28;-3.00;96.70
39021;DHT22;25188;51.958;5.842;2022-12-13T08:42:57;-2.90;96.80
39021;DHT22;25188;51.958;5.842;2022-12-13T08:45:22;-2.90;96.90
39021;DHT22;25188;51.958;5.842;2022-12-13T08:47:48;-2.80;97.00
39021;DHT22;25188;51.958;5.842;2022-12-13T08:50:14;-2.80;97.00
39021;DHT22;25188;51.958;5.842;2022-12-13T08:52:40;-2.70;97.10
39021;DHT22;25188;51.958;5.842;2022-12-13T08:55:09;-2.70;97.20
39021;DHT22;25188;51.958;5.842;2022-12-13T08:57:36;-2.60;97.20
39021;DHT22;25188;51.958;5.842;2022-12-13T09:00:05;-2.60;97.30
39021;DHT22;25188;51.958;5.842;2022-12-13T09:02:31;-2.50;97.40
39021;DHT22;25188;51.958;5.842;2022-12-13T09:04:57;-2.40;97.40
39021;DHT22;25188;51.958;5.842;2022-12-13T09:07:23;-2.30;97.50
39021;DHT22;25188;51.958;5.842;2022-12-13T09:09:48;-2.30;97.60
39021;DHT22;25188;51.958;5.842;2022-12-13T09:12:14;-2.30;97.60
39021;DHT22;25188;51.958;5.842;2022-12-13T09:14:39;-2.20;97.70
39021;DHT22;25188;51.958;5.842;2022-12-13T09:17:05;-2.10;97.80
39021;DHT22;25188;51.958;5.842;2022-12-13T09:19:31;-2.00;98.00
39021;DHT22;25188;51.958;5.842;2022-12-13T09:21:57;-1.90;98.20
39021;DHT22;25188;51.958;5.842;2022-12-13T09:24:22;-1.70;98.40
39021;DHT22;25188;51.958;5.842;2022-12-13T09:26:48;-1.60;98.50
39021;DHT22;25188;51.958;5.842;2022-12-13T09:29:14;-1.40;98.60
39021;DHT22;25188;51.958;5.842;2022-12-13T09:31:41;-1.20;98.60
39021;DHT22;25188;51.958;5.842;2022-12-13T09:34:07;-1.00;98.90
39021;DHT22;25188;51.958;5.842;2022-12-13T09:36:33;-0.60;99.70
39021;DHT22;25188;51.958;5.842;2022-12-13T09:38:59;-0.20;99.90
39021;DHT22;25188;51.958;5.842;2022-12-13T09:41:38;0.40;99.90
39021;DHT22;25188;51.958;5.842;2022-12-13T09:44:26;0.80;99.90
39021;DHT22;25188;51.958;5.842;2022-12-13T09:46:53;1.50;99.90
39021;DHT22;25188;51.958;5.842;2022-12-13T09:51:49;2.60;99.90
39021;DHT22;25188;51.958;5.842;2022-12-13T09:54:19;3.00;99.90
39021;DHT22;25188;51.958;5.842;2022-12-13T09:56:46;3.30;99.90
39021;DHT22;25188;51.958;5.842;2022-12-13T09:59:16;3.50;99.90
39021;DHT22;25188;51.958;5.842;2022-12-13T10:01:44;3.90;99.90
39021;DHT22;25188;51.958;5.842;2022-12-13T10:04:13;4.30;99.90
39021;DHT22;25188;51.958;5.842;2022-12-13T10:06:41;4.70;99.90
39021;DHT22;25188;51.958;5.842;2022-12-13T10:09:09;5.10;99.90
39021;DHT22;25188;51.958;5.842;2022-12-13T10:11:46;5.30;99.90
39021;DHT22;25188;51.958;5.842;2022-12-13T10:14:20;5.40;99.60
39021;DHT22;25188;51.958;5.842;2022-12-13T10:16:55;5.50;98.60
39021;DHT22;25188;51.958;5.842;2022-12-13T10:19:37;5.50;97.60
39021;DHT22;25188;51.958;5.842;2022-12-13T10:22:09;5.60;96.70
39021;DHT22;25188;51.958;5.842;2022-12-13T10:24:58;5.50;95.90
39021;DHT22;25188;51.958;5.842;2022-12-13T10:27:44;5.50;94.80
39021;DHT22;25188;51.958;5.842;2022-12-13T10:30:11;5.40;93.70
39021;DHT22;25188;51.958;5.842;2022-12-13T10:32:53;5.20;92.70
39021;DHT22;25188;51.958;5.842;2022-12-13T10:37:48;4.90;91.50
39021;DHT22;25188;51.958;5.842;2022-12-13T10:40:30;4.70;91.00
39021;DHT22;25188;51.958;5.842;2022-12-13T10:43:09;4.60;90.60
39021;DHT22;25188;51.958;5.842;2022-12-13T10:45:36;4.50;90.40
39021;DHT22;25188;51.958;5.842;2022-12-13T10:48:02;4.30;90.10
39021;DHT22;25188;51.958;5.842;2022-12-13T10:50:29;4.30;89.60
39021;DHT22;25188;51.958;5.842;2022-12-13T10:52:57;4.30;90.00
39021;DHT22;25188;51.958;5.842;2022-12-13T10:55:34;4.50;89.40
39021;DHT22;25188;51.958;5.842;2022-12-13T10:58:06;4.50;89.50
39021;DHT22;25188;51.958;5.842;2022-12-13T11:00:42;4.60;89.70
39021;DHT22;25188;51.958;5.842;2022-12-13T11:03:31;4.80;89.70
39021;DHT22;25188;51.958;5.842;2022-12-13T11:06:11;5.10;89.60
39021;DHT22;25188;51.958;5.842;2022-12-13T11:08:37;5.20;89.00
39021;DHT22;25188;51.958;5.842;2022-12-13T11:11:05;5.30;87.80
39021;DHT22;25188;51.958;5.842;2022-12-13T11:13:41;5.30;86.80
39021;DHT22;25188;51.958;5.842;2022-12-13T11:16:19;5.30;86.10
39021;DHT22;25188;51.958;5.842;2022-12-13T11:18:51;5.30;85.40
39021;DHT22;25188;51.958;5.842;2022-12-13T11:21:25;5.40;85.50
39021;DHT22;25188;51.958;5.842;2022-12-13T11:23:52;5.60;85.40
39021;DHT22;25188;51.958;5.842;2022-12-13T11:26:21;5.80;85.10
39021;DHT22;25188;51.958;5.842;2022-12-13T11:34:12;5.50;81.60
39021;DHT22;25188;51.958;5.842;2022-12-13T11:37:04;5.50;79.80
39021;DHT22;25188;51.958;5.842;2022-12-13T11:40:12;5.30;79.30
39021;DHT22;25188;51.958;5.842;2022-12-13T11:42:44;5.10;78.90
39021;DHT22;25188;51.958;5.842;2022-12-13T11:47:48;4.90;79.30
39021;DHT22;25188;51.958;5.842;2022-12-13T11:50:22;5.00;79.50
39021;DHT22;25188;51.958;5.842;2022-12-13T11:52:58;5.10;79.30
39021;DHT22;25188;51.958;5.842;2022-12-13T11:55:38;5.20;78.80
39021;DHT22;25188;51.958;5.842;2022-12-13T11:58:20;5.20;78.60
39021;DHT22;25188;51.958;5.842;2022-12-13T12:00:56;5.20;78.30
39021;DHT22;25188;51.958;5.842;2022-12-13T12:03:55;5.20;78.00
39021;DHT22;25188;51.958;5.842;2022-12-13T12:06:26;5.20;77.90
39021;DHT22;25188;51.958;5.842;2022-12-13T12:08:59;5.30;77.60
39021;DHT22;25188;51.958;5.842;2022-12-13T12:14:13;5.40;77.80
39021;DHT22;25188;51.958;5.842;2022-12-13T12:16:52;5.50;78.20
39021;DHT22;25188;51.958;5.842;2022-12-13T12:19:25;5.60;78.30
39021;DHT22;25188;51.958;5.842;2022-12-13T12:27:38;6.00;77.60
39021;DHT22;25188;51.958;5.842;2022-12-13T12:30:20;6.10;77.40
39021;DHT22;25188;51.958;5.842;2022-12-13T12:38:48;6.20;75.40
39021;DHT22;25188;51.958;5.842;2022-12-13T12:43:58;5.90;74.30
39021;DHT22;25188;51.958;5.842;2022-12-13T12:49:52;5.60;74.40
39021;DHT22;25188;51.958;5.842;2022-12-13T12:58:26;5.80;75.30
39021;DHT22;25188;51.958;5.842;2022-12-13T13:01:07;6.10;75.90
39021;DHT22;25188;51.958;5.842;2022-12-13T13:03:37;6.30;75.80
39021;DHT22;25188;51.958;5.842;2022-12-13T13:06:09;6.60;75.40
39021;DHT22;25188;51.958;5.842;2022-12-13T13:08:42;6.70;75.10
39021;DHT22;25188;51.958;5.842;2022-12-13T13:11:09;7.00;74.80
39021;DHT22;25188;51.958;5.842;2022-12-13T13:13:42;7.20;75.00
39021;DHT22;25188;51.958;5.842;2022-12-13T13:16:36;7.60;75.30
39021;DHT22;25188;51.958;5.842;2022-12-13T13:21:32;7.80;73.30
39021;DHT22;25188;51.958;5.842;2022-12-13T13:24:04;7.70;72.10
39021;DHT22;25188;51.958;5.842;2022-12-13T13:26:33;7.70;71.60
39021;DHT22;25188;51.958;5.842;2022-12-13T13:34:42;7.30;69.20
39021;DHT22;25188;51.958;5.842;2022-12-13T13:57:03;5.10;68.60
39021;DHT22;25188;51.958;5.842;2022-12-13T14:17:41;3.70;69.80
39021;DHT22;25188;51.958;5.842;2022-12-13T14:20:41;3.60;70.00
39021;DHT22;25188;51.958;5.842;2022-12-13T14:26:31;3.20;70.40
39021;DHT22;25188;51.958;5.842;2022-12-13T14:29:00;3.20;70.50
39021;DHT22;25188;51.958;5.842;2022-12-13T14:31:39;3.10;70.70
39021;DHT22;25188;51.958;5.842;2022-12-13T14:34:06;2.90;70.80
39021;DHT22;25188;51.958;5.842;2022-12-13T14:36:34;2.80;70.90
39021;DHT22;25188;51.958;5.842;2022-12-13T14:39:16;2.70;71.30
39021;DHT22;25188;51.958;5.842;2022-12-13T14:41:50;2.60;71.40
39021;DHT22;25188;51.958;5.842;2022-12-13T14:44:23;2.50;71.60
39021;DHT22;25188;51.958;5.842;2022-12-13T14:46:58;2.50;71.80
39021;DHT22;25188;51.958;5.842;2022-12-13T14:49:26;2.40;71.90
39021;DHT22;25188;51.958;5.842;2022-12-13T14:51:55;2.40;72.00
39021;DHT22;25188;51.958;5.842;2022-12-13T14:54:28;2.20;72.10
39021;DHT22;25188;51.958;5.842;2022-12-13T14:57:00;2.20;72.30
39021;DHT22;25188;51.958;5.842;2022-12-13T14:59:28;2.10;72.60
39021;DHT22;25188;51.958;5.842;2022-12-13T15:01:59;2.00;72.60
39021;DHT22;25188;51.958;5.842;2022-12-13T15:04:33;1.90;72.80
39021;DHT22;25188;51.958;5.842;2022-12-13T15:09:35;1.70;73.00
39021;DHT22;25188;51.958;5.842;2022-12-13T15:12:16;1.60;73.30
39021;DHT22;25188;51.958;5.842;2022-12-13T15:14:46;1.60;73.60
39021;DHT22;25188;51.958;5.842;2022-12-13T15:17:36;1.50;73.70
39021;DHT22;25188;51.958;5.842;2022-12-13T15:20:27;1.40;74.00
39021;DHT22;25188;51.958;5.842;2022-12-13T15:23:20;1.30;74.20
39021;DHT22;25188;51.958;5.842;2022-12-13T15:25:44;1.30;74.30
39021;DHT22;25188;51.958;5.842;2022-12-13T15:28:14;1.10;74.50
39021;DHT22;25188;51.958;5.842;2022-12-13T15:30:40;1.00;74.70
39021;DHT22;25188;51.958;5.842;2022-12-13T15:33:17;1.00;75.00
39021;DHT22;25188;51.958;5.842;2022-12-13T15:35:43;1.00;75.10
39021;DHT22;25188;51.958;5.842;2022-12-13T15:38:16;0.90;75.30
39021;DHT22;25188;51.958;5.842;2022-12-13T15:40:47;0.90;75.50
39021;DHT22;25188;51.958;5.842;2022-12-13T15:43:19;0.90;75.90
39021;DHT22;25188;51.958;5.842;2022-12-13T15:45:48;0.80;75.90
39021;DHT22;25188;51.958;5.842;2022-12-13T15:48:26;0.80;76.40
39021;DHT22;25188;51.958;5.842;2022-12-13T15:51:06;0.70;76.30
39021;DHT22;25188;51.958;5.842;2022-12-13T15:53:33;0.70;76.60
39021;DHT22;25188;51.958;5.842;2022-12-13T15:55:59;0.60;76.60
39021;DHT22;25188;51.958;5.842;2022-12-13T15:58:28;0.60;77.00
39021;DHT22;25188;51.958;5.842;2022-12-13T16:00:55;0.60;77.10
39021;DHT22;25188;51.958;5.842;2022-12-13T16:03:24;0.50;77.20
39021;DHT22;25188;51.958;5.842;2022-12-13T16:05:52;0.60;77.20
39021;DHT22;25188;51.958;5.842;2022-12-13T16:08:26;0.50;77.20
39021;DHT22;25188;51.958;5.842;2022-12-13T16:10:53;0.50;77.40
39021;DHT22;25188;51.958;5.842;2022-12-13T16:13:25;0.50;77.80
39021;DHT22;25188;51.958;5.842;2022-12-13T16:15:53;0.50;77.70
39021;DHT22;25188;51.958;5.842;2022-12-13T16:18:24;0.40;77.80
39021;DHT22;25188;51.958;5.842;2022-12-13T16:20:54;0.50;77.90
39021;DHT22;25188;51.958;5.842;2022-12-13T16:23:19;0.40;78.00
39021;DHT22;25188;51.958;5.842;2022-12-13T16:25:45;0.40;78.10
39021;DHT22;25188;51.958;5.842;2022-12-13T16:28:12;0.40;78.10
39021;DHT22;25188;51.958;5.842;2022-12-13T16:31:00;0.30;78.10
39021;DHT22;25188;51.958;5.842;2022-12-13T16:33:26;0.30;78.10
39021;DHT22;25188;51.958;5.842;2022-12-13T16:35:53;0.30;78.30
39021;DHT22;25188;51.958;5.842;2022-12-13T16:38:19;0.30;78.30
39021;DHT22;25188;51.958;5.842;2022-12-13T16:40:45;0.20;78.30
39021;DHT22;25188;51.958;5.842;2022-12-13T16:43:16;0.20;78.40
39021;DHT22;25188;51.958;5.842;2022-12-13T16:45:44;0.20;78.60
39021;DHT22;25188;51.958;5.842;2022-12-13T16:48:11;0.20;78.70
39021;DHT22;25188;51.958;5.842;2022-12-13T16:50:40;0.10;78.70
39021;DHT22;25188;51.958;5.842;2022-12-13T16:53:06;0.10;78.70
39021;DHT22;25188;51.958;5.842;2022-12-13T16:55:32;0.10;78.90
39021;DHT22;25188;51.958;5.842;2022-12-13T16:58:03;0.10;79.00
39021;DHT22;25188;51.958;5.842;2022-12-13T17:00:29;0.10;79.10
39021;DHT22;25188;51.958;5.842;2022-12-13T17:02:56;0.00;79.20
39021;DHT22;25188;51.958;5.842;2022-12-13T17:05:24;0.00;79.30
39021;DHT22;25188;51.958;5.842;2022-12-13T17:07:50;0.00;79.40
39021;DHT22;25188;51.958;5.842;2022-12-13T17:10:17;0.00;79.50
39021;DHT22;25188;51.958;5.842;2022-12-13T17:12:43;0.00;79.50
39021;DHT22;25188;51.958;5.842;2022-12-13T17:15:10;-0.10;79.60
39021;DHT22;25188;51.958;5.842;2022-12-13T17:17:37;-0.10;79.70
39021;DHT22;25188;51.958;5.842;2022-12-13T17:20:05;-0.10;80.40
39021;DHT22;25188;51.958;5.842;2022-12-13T17:22:31;-0.10;79.90
39021;DHT22;25188;51.958;5.842;2022-12-13T17:24:57;-0.10;80.00
39021;DHT22;25188;51.958;5.842;2022-12-13T17:27:22;-0.10;80.10
39021;DHT22;25188;51.958;5.842;2022-12-13T17:29:48;-0.10;80.10
39021;DHT22;25188;51.958;5.842;2022-12-13T17:32:14;-0.20;80.40
39021;DHT22;25188;51.958;5.842;2022-12-13T17:34:39;-0.20;80.30
39021;DHT22;25188;51.958;5.842;2022-12-13T17:37:05;-0.10;80.50
39021;DHT22;25188;51.958;5.842;2022-12-13T17:39:31;-0.20;80.60
39021;DHT22;25188;51.958;5.842;2022-12-13T17:41:56;-0.10;80.60
39021;DHT22;25188;51.958;5.842;2022-12-13T17:44:23;-0.20;80.70
39021;DHT22;25188;51.958;5.842;2022-12-13T17:46:49;-0.10;80.90
39021;DHT22;25188;51.958;5.842;2022-12-13T17:49:15;-0.20;81.00
39021;DHT22;25188;51.958;5.842;2022-12-13T17:51:40;-0.10;81.00
39021;DHT22;25188;51.958;5.842;2022-12-13T17:54:09;-0.20;81.10